Accueil
METAR-TAF:

METAR-TAF

Aéroports :

Chofu, Japon

latitude: 35-40N, longitude: 139-32E, altitude: 41 m

Observation

Le bulletin a été fait il y a 45 minutes, à 07:00 UTC
Vent 4 kt de sud, variant entre sud-est et sud-ouest
Température 34°C
Humidité 60%
Pression 1007 hPa
Visibilité 10 km ou plus
Quelques nuages à une hauteur de 3000 ft
Quelques nuages à une hauteur de 3500 ft, Cumulonimbus.
Nuages fragmentés
orage,

METAR: RJTF 250700Z 19004KT 140V220 9999 TS FEW030 FEW035CB BKN/// 34/25 Q1007

Heure: 16:45 (07:45 UTC)


TAF: absent

Observations et prévisions météorologiques de plus de 4000 aéroports (messages METAR et TAF).

Les stations disponibles sont représentées par des disques jaunes et rouges sur la carte.

Passer la souris dessus pour voir le nom de la station.

Cliquer dessus pour voir les observations et prévisions météorologiques.

Pour changer de carte: cliquez sur les boutons verts avec une croix noire pour zoomer, sur le bouton vert avec un tiret pour effectuer un zoom arrière, ou sur les flèches vertes pour les cartes adjacentes.


METAR-TAF: